Time;durP1;ratioP1;P1;durP2;ratioP2;P2;SDS_P1;SDS_P2;PMS_P1;PMS_P2;Temp;Humidity;BMP_temperature;BMP_pressure;BME280_temperature;BME280_humidity;BME280_pressure;Samples;Min_cycle;Max_cycle;Signal;HPM_P1;HPM_P2
2022/08/30 00:01:05;;;;;;;3.43;1.80;;;15.80;99.90;;;;;;5013068;28;20227;-83
2022/08/30 00:03:39;;;;;;;1.93;1.60;;;15.90;99.90;;;;;;5012990;28;20331;-82
2022/08/30 00:06:07;;;;;;;2.43;1.80;;;15.90;99.90;;;;;;5016698;28;20309;-82
2022/08/30 00:08:34;;;;;;;3.03;1.80;;;15.90;99.90;;;;;;4996137;28;20850;-84
2022/08/30 00:11:02;;;;;;;2.47;2.10;;;15.90;99.90;;;;;;5014346;28;20205;-82
2022/08/30 00:13:28;;;;;;;2.17;1.80;;;16.00;99.90;;;;;;5012675;28;20517;-82
2022/08/30 00:15:54;;;;;;;2.40;1.93;;;16.00;99.90;;;;;;5013892;28;20227;-82
2022/08/30 00:18:20;;;;;;;3.47;2.27;;;16.00;99.90;;;;;;5012390;28;20227;-82
2022/08/30 00:20:48;;;;;;;3.87;2.20;;;16.10;99.90;;;;;;5004088;28;20236;-83
2022/08/30 00:23:15;;;;;;;6.20;1.50;;;16.10;99.90;;;;;;4994657;28;20196;-82
2022/08/30 00:25:42;;;;;;;2.67;1.50;;;16.10;99.90;;;;;;5012667;28;20253;-82
2022/08/30 00:28:08;;;;;;;2.43;2.23;;;16.10;99.90;;;;;;5012171;28;20223;-81
2022/08/30 00:30:36;;;;;;;3.53;1.67;;;16.00;99.90;;;;;;5011977;28;20704;-84
2022/08/30 00:33:01;;;;;;;2.87;1.60;;;16.00;99.90;;;;;;5013376;28;20247;-82
2022/08/30 00:35:27;;;;;;;3.53;2.50;;;16.00;99.90;;;;;;5013596;28;20226;-82
2022/08/30 00:37:53;;;;;;;3.53;2.10;;;16.00;99.90;;;;;;5014092;28;20196;-84
2022/08/30 00:40:20;;;;;;;2.30;1.67;;;16.10;99.90;;;;;;5012356;28;20219;-82
2022/08/30 00:42:47;;;;;;;3.30;1.43;;;16.10;99.90;;;;;;4995960;28;20234;-83
2022/08/30 00:45:23;;;;;;;2.03;1.70;;;16.10;99.90;;;;;;5013208;28;20214;-82
2022/08/30 00:47:49;;;;;;;2.37;1.40;;;16.20;99.90;;;;;;5005320;28;20685;-83
2022/08/30 00:50:19;;;;;;;2.87;1.43;;;16.20;99.90;;;;;;5016516;28;20208;-81
2022/08/30 00:52:47;;;;;;;6.47;1.87;;;16.20;99.90;;;;;;5013629;28;20188;-82
2022/08/30 00:55:16;;;;;;;3.93;1.80;;;16.20;99.90;;;;;;5013275;28;20226;-82
2022/08/30 00:57:45;;;;;;;2.17;1.77;;;16.20;99.90;;;;;;5013412;28;20223;-82
2022/08/30 01:00:13;;;;;;;4.07;1.70;;;16.20;99.90;;;;;;5008757;28;20223;-83
2022/08/30 01:02:40;;;;;;;2.87;1.77;;;16.30;99.90;;;;;;5009358;28;20303;-82
2022/08/30 01:05:09;;;;;;;3.10;1.40;;;16.20;99.90;;;;;;5010880;28;20731;-83
2022/08/30 01:07:36;;;;;;;4.13;1.70;;;16.30;99.90;;;;;;5008193;28;20203;-83
2022/08/30 01:10:04;;;;;;;6.77;1.83;;;16.30;99.90;;;;;;5012663;28;20715;-84
2022/08/30 01:12:30;;;;;;;2.73;1.80;;;16.30;99.90;;;;;;5012802;28;20727;-82
2022/08/30 01:14:57;;;;;;;5.70;1.77;;;16.20;99.90;;;;;;5007845;28;20223;-83
2022/08/30 01:17:24;;;;;;;1.67;1.23;;;16.20;99.90;;;;;;5007119;28;20210;-82
2022/08/30 01:19:57;;;;;;;1.77;1.30;;;16.20;99.90;;;;;;5009602;28;20601;-82
2022/08/30 01:22:38;;;;;;;4.77;1.33;;;16.30;99.90;;;;;;5022037;28;20246;-82
2022/08/30 01:25:06;;;;;;;6.63;1.40;;;16.40;99.90;;;;;;5012673;28;20211;-82
2022/08/30 01:27:37;;;;;;;3.87;1.20;;;16.40;99.90;;;;;;5012518;28;20220;-82
2022/08/30 01:30:05;;;;;;;1.43;1.33;;;16.40;99.90;;;;;;5012504;28;20235;-82
2022/08/30 01:32:36;;;;;;;3.23;1.07;;;16.40;99.90;;;;;;5012422;28;20218;-83
2022/08/30 01:35:02;;;;;;;1.30;1.03;;;16.40;99.90;;;;;;5007577;28;20183;-84
2022/08/30 01:37:31;;;;;;;1.70;1.10;;;16.40;99.90;;;;;;5008131;28;20751;-82
2022/08/30 01:39:58;;;;;;;1.57;1.20;;;16.50;99.90;;;;;;5008499;28;20267;-83
2022/08/30 01:42:23;;;;;;;5.10;1.47;;;16.40;99.90;;;;;;5008167;28;20226;-82
2022/08/30 01:44:50;;;;;;;1.70;1.10;;;16.30;99.90;;;;;;5010847;28;20306;-83
2022/08/30 01:47:20;;;;;;;1.33;1.20;;;16.20;99.90;;;;;;4994948;28;20207;-83
2022/08/30 01:49:46;;;;;;;1.90;1.37;;;16.20;99.90;;;;;;5013204;28;20612;-83
2022/08/30 01:52:14;;;;;;;2.90;1.30;;;16.10;99.90;;;;;;5012249;28;20220;-82
2022/08/30 01:54:42;;;;;;;1.30;1.20;;;16.10;99.90;;;;;;5012017;28;20617;-82
2022/08/30 01:57:10;;;;;;;4.33;1.77;;;16.10;99.90;;;;;;5010742;28;20669;-83
2022/08/30 01:59:38;;;;;;;4.43;1.10;;;16.00;99.90;;;;;;5012336;28;20578;-82
2022/08/30 02:02:04;;;;;;;4.03;1.10;;;16.00;99.90;;;;;;5008571;28;20186;-83
2022/08/30 02:04:30;;;;;;;4.43;1.33;;;16.10;99.90;;;;;;5015069;28;20356;-83
2022/08/30 02:06:56;;;;;;;1.20;1.10;;;16.20;99.90;;;;;;5015916;28;20290;-87
2022/08/30 02:09:22;;;;;;;1.77;1.33;;;16.20;99.90;;;;;;4994082;28;20247;-83
2022/08/30 02:11:47;;;;;;;1.80;1.40;;;16.20;99.90;;;;;;5002724;28;20647;-83
2022/08/30 02:14:14;;;;;;;5.87;1.33;;;16.30;99.90;;;;;;5009143;28;20763;-83
2022/08/30 02:16:40;;;;;;;1.03;0.93;;;16.30;99.90;;;;;;5010940;28;20230;-82
2022/08/30 02:19:06;;;;;;;2.83;1.00;;;16.30;99.90;;;;;;5011258;28;20226;-82
2022/08/30 02:21:33;;;;;;;1.97;1.30;;;16.30;99.90;;;;;;4999285;28;20231;-82
2022/08/30 02:23:58;;;;;;;2.40;1.23;;;16.20;99.90;;;;;;4983904;28;20249;-83
2022/08/30 02:26:25;;;;;;;0.97;0.90;;;16.10;99.90;;;;;;4991915;28;20207;-83
2022/08/30 02:28:52;;;;;;;4.93;1.20;;;16.10;99.90;;;;;;5012207;28;20215;-83
2022/08/30 02:31:20;;;;;;;1.93;1.40;;;16.10;99.90;;;;;;5002171;28;20223;-83
2022/08/30 02:33:46;;;;;;;4.73;1.63;;;16.10;99.90;;;;;;4993878;28;20219;-82
2022/08/30 02:36:12;;;;;;;1.33;1.23;;;16.20;99.90;;;;;;5011412;28;20219;-82
2022/08/30 02:38:38;;;;;;;2.10;1.67;;;16.10;99.90;;;;;;5009585;28;20258;-82
2022/08/30 02:41:04;;;;;;;2.10;1.30;;;16.00;99.90;;;;;;5011591;28;20196;-82
2022/08/30 02:43:30;;;;;;;5.77;1.63;;;15.80;99.90;;;;;;5002384;28;20223;-83
2022/08/30 02:45:56;;;;;;;1.50;1.40;;;15.70;99.90;;;;;;5006094;28;20728;-81
2022/08/30 02:48:22;;;;;;;1.87;1.23;;;15.70;99.90;;;;;;5011142;28;20253;-82
2022/08/30 02:50:50;;;;;;;2.53;1.57;;;15.60;99.90;;;;;;5012452;28;20704;-81
2022/08/30 02:53:15;;;;;;;2.50;1.53;;;15.40;99.90;;;;;;5011304;28;20274;-81
2022/08/30 02:55:42;;;;;;;3.57;1.93;;;15.30;99.90;;;;;;5011870;28;20274;-83
2022/08/30 02:58:09;;;;;;;1.77;1.57;;;15.20;99.90;;;;;;5002011;28;20274;-82
2022/08/30 03:00:36;;;;;;;3.27;1.30;;;15.20;99.90;;;;;;5009949;28;20752;-82
2022/08/30 03:03:02;;;;;;;1.70;1.50;;;15.10;99.90;;;;;;5010891;28;20639;-84
2022/08/30 03:05:29;;;;;;;2.30;1.50;;;15.10;99.90;;;;;;5011565;28;20254;-81
2022/08/30 03:07:55;;;;;;;1.70;1.50;;;15.10;99.90;;;;;;5010481;28;20255;-82
2022/08/30 03:10:21;;;;;;;2.07;1.87;;;15.00;99.90;;;;;;5001293;28;20227;-82
2022/08/30 03:12:47;;;;;;;3.00;1.83;;;14.90;99.90;;;;;;5010060;28;20222;-82
2022/08/30 03:15:13;;;;;;;2.00;1.70;;;14.80;99.90;;;;;;5011104;28;20250;-82
2022/08/30 03:17:40;;;;;;;3.93;2.30;;;14.70;99.90;;;;;;5022620;28;20223;-82
2022/08/30 03:20:07;;;;;;;2.40;1.90;;;14.70;99.90;;;;;;5010003;28;20229;-83
2022/08/30 03:22:33;;;;;;;2.70;1.80;;;14.70;99.90;;;;;;5011307;28;20781;-82
2022/08/30 03:25:00;;;;;;;2.87;1.93;;;14.70;99.90;;;;;;5010968;28;20223;-85
2022/08/30 03:27:28;;;;;;;2.20;1.90;;;14.60;99.90;;;;;;5009708;28;20602;-82
2022/08/30 03:29:54;;;;;;;4.47;1.97;;;14.50;99.90;;;;;;5011432;28;20235;-81
2022/08/30 03:32:19;;;;;;;2.47;2.07;;;14.50;99.90;;;;;;5015093;28;20261;-82
2022/08/30 03:34:45;;;;;;;2.67;2.47;;;14.40;99.90;;;;;;5013660;28;20265;-81
2022/08/30 03:37:11;;;;;;;2.53;2.33;;;14.40;99.90;;;;;;5014507;28;20227;-81
2022/08/30 03:39:38;;;;;;;2.17;1.70;;;14.40;99.90;;;;;;4997222;28;20223;-82
2022/08/30 03:42:04;;;;;;;2.33;2.13;;;14.40;99.90;;;;;;5000997;28;20301;-82
2022/08/30 03:44:30;;;;;;;3.17;2.50;;;14.40;99.90;;;;;;5013212;28;20230;-82
2022/08/30 03:46:55;;;;;;;3.53;2.13;;;14.40;99.90;;;;;;5015304;28;20188;-82
2022/08/30 03:49:23;;;;;;;9.87;2.53;;;14.40;99.90;;;;;;5009127;28;20239;-82
2022/08/30 03:51:50;;;;;;;2.03;1.83;;;14.40;99.90;;;;;;5009437;28;20223;-82
2022/08/30 03:54:16;;;;;;;2.23;1.73;;;14.40;99.90;;;;;;5014287;28;20215;-82
2022/08/30 03:56:42;;;;;;;2.60;2.13;;;14.40;99.90;;;;;;5014270;28;20230;-82
2022/08/30 03:59:09;;;;;;;2.47;1.63;;;14.30;99.90;;;;;;5013320;28;20202;-81
2022/08/30 04:01:34;;;;;;;2.50;2.30;;;14.20;99.90;;;;;;5014030;28;20230;-82
2022/08/30 04:04:00;;;;;;;2.70;2.20;;;14.20;99.90;;;;;;5015023;28;20219;-82
2022/08/30 04:06:27;;;;;;;3.53;2.20;;;14.20;99.90;;;;;;4996271;28;20215;-82
2022/08/30 04:08:53;;;;;;;2.33;1.73;;;14.20;99.90;;;;;;5012714;28;20261;-81
2022/08/30 04:11:19;;;;;;;5.27;2.60;;;14.10;99.90;;;;;;5013917;28;20612;-82
2022/08/30 04:13:46;;;;;;;3.17;2.40;;;14.00;99.90;;;;;;5014231;28;20611;-82
2022/08/30 04:16:12;;;;;;;2.57;2.37;;;13.90;99.90;;;;;;5004727;28;20227;-82
2022/08/30 04:18:38;;;;;;;4.00;2.43;;;13.90;99.90;;;;;;5004721;28;20238;-82
2022/08/30 04:21:04;;;;;;;2.60;2.17;;;13.80;99.90;;;;;;5013704;28;20291;-81
2022/08/30 04:23:29;;;;;;;2.70;2.17;;;13.70;99.90;;;;;;5012483;28;20180;-81
2022/08/30 04:25:55;;;;;;;3.17;2.73;;;13.70;99.90;;;;;;5013223;28;20560;-82
2022/08/30 04:28:22;;;;;;;2.73;2.00;;;13.60;99.90;;;;;;5013468;28;20227;-81
2022/08/30 04:30:48;;;;;;;6.27;2.37;;;13.50;99.90;;;;;;5011010;28;20230;-81
2022/08/30 04:33:15;;;;;;;2.20;1.77;;;13.50;99.90;;;;;;5012072;28;20227;-82
2022/08/30 04:35:46;;;;;;;2.10;1.70;;;13.40;99.90;;;;;;5013472;28;20684;-81
2022/08/30 04:38:13;;;;;;;6.77;2.20;;;13.30;99.90;;;;;;5009867;28;20313;-82
2022/08/30 04:40:43;;;;;;;2.20;2.00;;;13.30;99.90;;;;;;5009637;28;20310;-82
2022/08/30 04:43:11;;;;;;;2.73;2.07;;;13.20;99.90;;;;;;4999090;28;20589;-81
2022/08/30 04:45:38;;;;;;;3.33;2.53;;;13.20;99.90;;;;;;5010160;28;20740;-82
2022/08/30 04:48:05;;;;;;;2.37;2.13;;;13.20;99.90;;;;;;5013100;28;20223;-84
2022/08/30 04:50:31;;;;;;;2.33;2.13;;;13.20;99.90;;;;;;4999552;28;20222;-82
2022/08/30 04:52:57;;;;;;;4.47;3.10;;;13.30;99.90;;;;;;5013964;28;20633;-82
2022/08/30 04:55:24;;;;;;;3.70;2.50;;;13.50;99.90;;;;;;5003930;28;20228;-81
2022/08/30 04:57:51;;;;;;;4.47;2.40;;;13.40;99.90;;;;;;4975356;28;20239;-82
2022/08/30 05:00:19;;;;;;;3.30;2.20;;;13.40;99.90;;;;;;4997927;28;20599;-81
2022/08/30 05:02:46;;;;;;;3.40;2.40;;;13.20;99.90;;;;;;5005830;28;20226;-82
2022/08/30 05:07:56;;;;;;;2.43;2.23;;;12.90;99.90;;;;;;5011231;28;20247;-82
2022/08/30 05:10:22;;;;;;;3.63;2.60;;;12.80;99.90;;;;;;5012758;28;20238;-81
2022/08/30 05:12:48;;;;;;;3.80;2.90;;;12.80;99.90;;;;;;5003915;28;20750;-81
2022/08/30 05:15:14;;;;;;;2.43;1.93;;;12.70;99.90;;;;;;5012555;28;20219;-82
2022/08/30 05:17:41;;;;;;;3.63;2.33;;;12.70;99.90;;;;;;5012615;28;20207;-82
2022/08/30 05:20:09;;;;;;;6.33;2.53;;;12.80;99.90;;;;;;5012824;28;20223;-83
2022/08/30 05:22:36;;;;;;;4.50;2.80;;;12.90;99.90;;;;;;5012907;28;20223;-82
2022/08/30 05:25:03;;;;;;;6.00;2.60;;;13.00;99.90;;;;;;5012509;28;20338;-81
2022/08/30 05:27:29;;;;;;;4.03;2.70;;;13.20;99.90;;;;;;5002904;28;20239;-82
2022/08/30 05:29:55;;;;;;;6.93;3.10;;;13.30;99.90;;;;;;4989849;28;20314;-82
2022/08/30 05:32:21;;;;;;;3.90;3.23;;;13.40;99.90;;;;;;4979586;28;20236;-81
2022/08/30 05:34:46;;;;;;;3.90;2.97;;;13.50;99.90;;;;;;5004755;28;20255;-80
2022/08/30 05:37:12;;;;;;;5.43;2.77;;;13.60;99.90;;;;;;5002625;28;20216;-81
2022/08/30 05:39:38;;;;;;;4.00;3.57;;;13.70;99.90;;;;;;4967931;28;20238;-82
2022/08/30 05:42:04;;;;;;;7.90;4.03;;;13.90;99.90;;;;;;5012099;28;20231;-83
2022/08/30 05:44:29;;;;;;;13.00;4.83;;;14.10;99.90;;;;;;5002909;28;20200;-81
2022/08/30 05:46:55;;;;;;;5.93;4.10;;;14.20;99.90;;;;;;5012516;28;20197;-80
2022/08/30 05:49:21;;;;;;;8.67;4.87;;;14.40;99.90;;;;;;5002007;28;20227;-82
2022/08/30 05:51:46;;;;;;;6.23;4.07;;;14.50;99.90;;;;;;5000260;28;20228;-81
2022/08/30 05:54:14;;;;;;;8.70;4.03;;;14.60;99.90;;;;;;4992043;28;20255;-80
2022/08/30 05:56:42;;;;;;;11.40;5.07;;;14.70;99.90;;;;;;4995663;28;20223;-80
2022/08/30 05:59:08;;;;;;;11.07;4.57;;;14.90;99.90;;;;;;5004211;28;20234;-80
2022/08/30 06:01:36;;;;;;;6.33;4.40;;;15.20;99.90;;;;;;4983080;28;20224;-80
2022/08/30 06:04:05;;;;;;;8.97;6.07;;;16.40;99.90;;;;;;4990194;28;20227;-81
2022/08/30 06:06:35;;;;;;;12.93;7.13;;;18.30;99.90;;;;;;5002402;28;20741;-81
2022/08/30 06:09:04;;;;;;;8.03;5.33;;;20.10;99.90;;;;;;5023222;28;20673;-81
2022/08/30 06:11:29;;;;;;;8.47;3.53;;;21.90;99.90;;;;;;5007949;28;20631;-81
2022/08/30 06:13:56;;;;;;;3.97;2.73;;;21.30;99.90;;;;;;5008388;28;20567;-81
2022/08/30 06:16:24;;;;;;;5.27;2.63;;;19.60;99.90;;;;;;5002251;28;20226;-81
2022/08/30 06:18:51;;;;;;;3.30;2.80;;;18.40;99.90;;;;;;5007825;28;20576;-82
2022/08/30 06:21:18;;;;;;;2.83;2.40;;;17.60;99.90;;;;;;5002128;28;20231;-81
2022/08/30 06:23:45;;;;;;;3.60;2.53;;;17.30;99.90;;;;;;4971641;28;20270;-80
2022/08/30 06:26:11;;;;;;;4.13;2.80;;;17.70;99.90;;;;;;4986920;28;20236;-82
2022/08/30 06:28:37;;;;;;;3.53;2.83;;;19.10;99.90;;;;;;5002404;28;20590;-80
2022/08/30 06:31:07;;;;;;;4.23;2.20;;;20.20;99.90;;;;;;5010680;28;20312;-81
2022/08/30 06:33:33;;;;;;;6.00;2.43;;;20.10;99.90;;;;;;5006423;28;20227;-79
2022/08/30 06:36:04;;;;;;;3.90;2.17;;;19.40;99.90;;;;;;5006897;28;20274;-80
2022/08/30 06:38:29;;;;;;;6.90;2.60;;;18.70;99.90;;;;;;5007643;28;20201;-80
2022/08/30 06:40:55;;;;;;;2.73;2.20;;;18.30;99.90;;;;;;5011776;28;20284;-79
2022/08/30 06:43:21;;;;;;;2.03;1.73;;;18.20;99.90;;;;;;5009745;28;20274;-79
2022/08/30 06:45:47;;;;;;;2.57;2.00;;;18.00;99.90;;;;;;5011223;28;20684;-81
2022/08/30 06:48:12;;;;;;;3.17;2.80;;;18.20;99.90;;;;;;5001852;28;20227;-81
2022/08/30 06:50:40;;;;;;;2.60;2.17;;;18.70;99.90;;;;;;4991449;28;20314;-79
2022/08/30 06:53:07;;;;;;;3.27;2.23;;;19.30;99.90;;;;;;5011157;28;20184;-80
2022/08/30 06:55:32;;;;;;;2.50;2.27;;;19.30;99.90;;;;;;4992291;28;20215;-80
2022/08/30 06:58:02;;;;;;;2.83;2.43;;;19.70;99.90;;;;;;5001932;28;20234;-80
2022/08/30 07:00:29;;;;;;;2.90;1.87;;;21.10;99.90;;;;;;5001982;28;20219;-79
2022/08/30 07:02:55;;;;;;;2.77;2.03;;;21.90;99.90;;;;;;5009832;28;20215;-81
2022/08/30 07:05:22;;;;;;;2.40;1.90;;;22.00;99.90;;;;;;5013153;28;20668;-82
2022/08/30 07:07:49;;;;;;;1.50;1.40;;;22.70;99.90;;;;;;5015705;28;20205;-80
2022/08/30 07:10:15;;;;;;;1.53;1.43;;;23.10;99.90;;;;;;4997671;28;20258;-80
2022/08/30 07:12:40;;;;;;;2.67;1.47;;;23.70;99.90;;;;;;4994016;28;20267;-80
2022/08/30 07:15:07;;;;;;;1.63;1.40;;;23.40;99.90;;;;;;4985021;28;20254;-80
2022/08/30 07:20:28;;;;;;;2.38;1.20;;;22.90;99.90;;;;;;4977980;28;20203;-81
2022/08/30 07:22:54;;;;;;;1.55;1.15;;;22.90;99.90;;;;;;5006319;28;20191;-81
2022/08/30 07:25:20;;;;;;;3.28;1.70;;;23.20;99.90;;;;;;5015031;28;20242;-80
2022/08/30 07:27:45;;;;;;;4.78;1.40;;;23.10;99.90;;;;;;5014698;28;20643;-82
2022/08/30 07:30:12;;;;;;;1.70;1.50;;;23.20;99.90;;;;;;5013784;28;20235;-82
2022/08/30 07:32:37;;;;;;;2.45;1.40;;;23.20;99.90;;;;;;5014467;28;20248;-80
2022/08/30 07:35:04;;;;;;;1.25;1.15;;;23.60;99.90;;;;;;5005579;28;20271;-80
2022/08/30 07:37:30;;;;;;;7.53;1.25;;;24.10;99.90;;;;;;5001736;28;20701;-81
2022/08/30 07:39:55;;;;;;;1.52;1.23;;;22.60;99.90;;;;;;5011421;28;20221;-80
2022/08/30 07:42:21;;;;;;;1.40;0.98;;;21.40;99.90;;;;;;5014214;28;20227;-82
2022/08/30 07:44:47;;;;;;;1.58;1.10;;;20.90;99.90;;;;;;5009093;28;20226;-81
2022/08/30 07:47:12;;;;;;;3.53;1.10;;;21.20;99.90;;;;;;4969692;28;20286;-80
2022/08/30 07:49:39;;;;;;;1.23;0.93;;;21.70;99.90;;;;;;4987960;28;20612;-80
2022/08/30 07:52:05;;;;;;;1.52;1.30;;;22.30;99.90;;;;;;5008220;28;20234;-81
2022/08/30 07:54:31;;;;;;;1.85;1.10;;;23.30;99.90;;;;;;5014330;28;20219;-81
2022/08/30 07:56:56;;;;;;;1.23;1.13;;;23.00;99.90;;;;;;5013338;28;20322;-81
2022/08/30 07:59:22;;;;;;;1.50;1.20;;;22.40;99.90;;;;;;5013947;28;20629;-81
2022/08/30 08:01:48;;;;;;;1.00;0.93;;;22.40;99.90;;;;;;5014575;28;20202;-81
2022/08/30 08:04:14;;;;;;;1.40;0.90;;;22.70;99.90;;;;;;5014395;28;20222;-80
2022/08/30 08:06:40;;;;;;;2.13;1.20;;;23.40;99.90;;;;;;5003117;28;20311;-80
2022/08/30 08:09:06;;;;;;;1.55;1.25;;;23.10;99.90;;;;;;4990500;28;20402;-80
2022/08/30 08:11:33;;;;;;;3.97;1.52;;;23.10;99.90;;;;;;5012726;28;20207;-81
2022/08/30 08:14:00;;;;;;;1.77;1.15;;;23.10;99.90;;;;;;5014135;28;20289;-80
2022/08/30 08:16:28;;;;;;;2.63;1.23;;;22.70;99.90;;;;;;5009314;28;20272;-80
2022/08/30 08:18:54;;;;;;;2.08;1.10;;;22.80;99.90;;;;;;5013947;28;20327;-81
2022/08/30 08:21:21;;;;;;;1.10;0.95;;;23.20;99.90;;;;;;5013591;28;20746;-80
2022/08/30 08:23:47;;;;;;;4.63;1.10;;;23.70;99.90;;;;;;5012649;28;20218;-81
2022/08/30 08:26:13;;;;;;;1.75;1.33;;;23.70;99.90;;;;;;5014048;28;20198;-80
2022/08/30 08:28:40;;;;;;;1.77;1.30;;;24.10;99.90;;;;;;4979862;28;20227;-80
2022/08/30 08:31:17;;;;;;;2.67;1.00;;;24.40;99.90;;;;;;5013725;28;20599;-80
2022/08/30 08:33:43;;;;;;;1.20;1.10;;;23.50;99.90;;;;;;5004271;28;20668;-81
2022/08/30 08:36:09;;;;;;;3.70;1.15;;;23.40;99.90;;;;;;5013519;28;20562;-81
2022/08/30 08:38:35;;;;;;;1.27;1.00;;;23.30;99.90;;;;;;5012006;28;20183;-81
2022/08/30 08:41:11;;;;;;;1.00;0.90;;;22.70;99.90;;;;;;5012879;28;20190;-82
2022/08/30 08:43:38;;;;;;;1.58;1.10;;;22.10;99.90;;;;;;5011899;28;20229;-80
2022/08/30 08:46:15;;;;;;;2.40;1.15;;;22.10;99.90;;;;;;5010742;28;20291;-81
2022/08/30 08:48:45;;;;;;;4.10;1.15;;;22.00;99.90;;;;;;5010281;28;20326;-81
2022/08/30 08:54:07;;;;;;;1.45;0.98;;;21.50;99.90;;;;;;5009493;28;20219;-81
2022/08/30 08:56:33;;;;;;;0.98;0.82;;;21.80;99.90;;;;;;5013005;28;20219;-80
2022/08/30 08:58:59;;;;;;;1.30;0.93;;;21.60;99.90;;;;;;5004295;28;20254;-82
2022/08/30 09:01:27;;;;;;;1.63;1.20;;;22.20;99.90;;;;;;5013235;28;20743;-81
2022/08/30 09:03:55;;;;;;;2.20;1.15;;;22.70;99.90;;;;;;5013000;28;20257;-81
2022/08/30 09:06:44;;;;;;;1.23;1.02;;;21.60;99.90;;;;;;5005782;28;20220;-86
2022/08/30 09:09:10;;;;;;;2.15;1.00;;;21.10;99.90;;;;;;5012515;28;20266;-81
2022/08/30 09:11:38;;;;;;;0.93;0.90;;;21.00;99.90;;;;;;5011532;28;20219;-81
2022/08/30 09:14:18;;;;;;;0.98;0.82;;;21.50;99.90;;;;;;5012269;28;20187;-80
2022/08/30 09:17:11;;;;;;;1.58;1.10;;;20.80;99.90;;;;;;4987725;28;20239;-80
2022/08/30 09:19:39;;;;;;;1.35;1.00;;;20.50;99.90;;;;;;4991830;28;20230;-81
2022/08/30 09:22:10;;;;;;;0.88;0.85;;;21.00;99.90;;;;;;5006789;28;20227;-80
2022/08/30 09:24:45;;;;;;;3.03;1.10;;;20.70;99.90;;;;;;5012700;28;20234;-81
2022/08/30 09:27:24;;;;;;;1.30;1.20;;;20.80;99.90;;;;;;5012210;28;20630;-81
2022/08/30 09:30:04;;;;;;;1.00;0.90;;;20.80;99.90;;;;;;5008888;28;20692;-81
2022/08/30 09:32:55;;;;;;;5.53;0.90;;;20.80;99.90;;;;;;5009903;28;20191;-81
2022/08/30 09:35:35;;;;;;;5.13;1.33;;;20.50;99.90;;;;;;5025967;28;20683;-82
2022/08/30 09:38:05;;;;;;;1.77;0.87;;;20.30;99.90;;;;;;5013236;28;20234;-81
2022/08/30 09:40:41;;;;;;;4.37;1.20;;;21.70;99.90;;;;;;5011069;28;20692;-80
2022/08/30 09:43:09;;;;;;;1.67;0.87;;;22.40;99.90;;;;;;5001983;28;20242;-81
2022/08/30 09:45:43;;;;;;;1.15;1.02;;;23.10;99.90;;;;;;5012419;28;20314;-80
2022/08/30 09:48:23;;;;;;;1.10;1.00;;;24.00;99.90;;;;;;5012302;28;20305;-80
2022/08/30 09:50:57;;;;;;;1.48;1.30;;;23.90;99.90;;;;;;5009966;28;20242;-81
2022/08/30 09:53:32;;;;;;;2.78;1.13;;;23.50;99.90;;;;;;5003541;28;20653;-81
2022/08/30 09:56:06;;;;;;;1.98;1.00;;;23.00;99.90;;;;;;4993003;28;20187;-81
2022/08/30 09:58:35;;;;;;;2.35;0.80;;;23.00;99.90;;;;;;4992065;28;20220;-82
2022/08/30 10:01:12;;;;;;;1.08;0.70;;;23.70;99.90;;;;;;5005375;28;20619;-81
2022/08/30 10:04:06;;;;;;;1.00;0.90;;;23.80;99.90;;;;;;5011860;28;20265;-81
2022/08/30 10:06:40;;;;;;;2.88;0.70;;;24.30;99.90;;;;;;4999252;28;20685;-81
2022/08/30 10:09:40;;;;;;;1.38;1.27;;;23.90;99.90;;;;;;4991305;28;20249;-82
2022/08/30 10:12:24;;;;;;;1.75;0.68;;;24.10;99.90;;;;;;5008531;28;20230;-81
2022/08/30 10:14:59;;;;;;;1.98;0.90;;;23.60;99.90;;;;;;5011662;28;20211;-82
2022/08/30 10:17:40;;;;;;;1.30;0.95;;;22.70;99.90;;;;;;5011422;28;20183;-81
2022/08/30 10:20:29;;;;;;;1.20;0.90;;;22.30;99.90;;;;;;5009822;28;20233;-80
2022/08/30 10:23:08;;;;;;;2.60;1.10;;;22.50;99.90;;;;;;4989402;28;20619;-81
2022/08/30 10:25:40;;;;;;;0.80;0.73;;;22.70;99.90;;;;;;5010694;28;20301;-81
2022/08/30 10:28:15;;;;;;;1.20;1.10;;;21.80;99.90;;;;;;5005558;28;20226;-80
2022/08/30 10:30:48;;;;;;;0.70;0.70;;;22.20;99.90;;;;;;5009985;28;20281;-80
2022/08/30 10:33:21;;;;;;;0.93;0.82;;;22.70;99.90;;;;;;5008303;28;20226;-81
2022/08/30 10:35:56;;;;;;;0.60;0.60;;;23.00;99.90;;;;;;5009919;28;20695;-80
2022/08/30 10:38:29;;;;;;;0.98;0.90;;;24.60;99.90;;;;;;5010606;28;20545;-80
2022/08/30 10:41:27;;;;;;;0.75;0.63;;;23.50;99.90;;;;;;5010894;28;20218;-81
2022/08/30 10:44:03;;;;;;;0.60;0.60;;;22.80;99.90;;;;;;5011058;28;20242;-81
2022/08/30 10:46:46;;;;;;;1.15;0.90;;;23.00;99.90;;;;;;5018387;28;20222;-82
2022/08/30 10:49:18;;;;;;;2.33;0.80;;;23.90;99.90;;;;;;5011332;28;20281;-80
2022/08/30 10:51:56;;;;;;;0.70;0.70;;;24.10;99.90;;;;;;5013535;28;20823;-81
2022/08/30 10:54:43;;;;;;;1.45;0.75;;;24.70;99.90;;;;;;5020480;28;20208;-80
2022/08/30 10:57:09;;;;;;;1.10;0.90;;;24.70;99.90;;;;;;5011286;28;20227;-80
2022/08/30 10:59:43;;;;;;;0.68;0.68;;;24.50;99.90;;;;;;5003281;28;20672;-81
2022/08/30 11:02:21;;;;;;;0.95;0.70;;;24.10;99.90;;;;;;5007931;28;20191;-81
2022/08/30 11:05:12;;;;;;;1.42;0.70;;;23.90;99.90;;;;;;5002303;28;20214;-82
2022/08/30 11:07:47;;;;;;;2.30;0.73;;;23.80;99.90;;;;;;5007571;28;20226;-80
2022/08/30 11:10:30;;;;;;;1.60;0.80;;;23.20;99.90;;;;;;5011132;28;20230;-80
2022/08/30 11:13:11;;;;;;;3.33;0.63;;;23.50;99.90;;;;;;5014012;28;20234;-82
2022/08/30 11:16:01;;;;;;;0.90;0.60;;;24.10;99.90;;;;;;5008825;28;20211;-80
2022/08/30 11:18:41;;;;;;;1.00;0.70;;;23.80;99.90;;;;;;5008070;28;20278;-81
2022/08/30 11:21:39;;;;;;;1.25;0.80;;;23.20;99.90;;;;;;5002852;28;20219;-80
2022/08/30 11:24:23;;;;;;;0.95;0.75;;;23.10;99.90;;;;;;4987838;28;20271;-81
2022/08/30 11:26:49;;;;;;;3.35;0.75;;;23.50;99.90;;;;;;4992954;28;20242;-81
2022/08/30 11:29:33;;;;;;;4.35;0.70;;;23.70;99.90;;;;;;5011199;28;20215;-80
2022/08/30 11:32:10;;;;;;;1.27;0.68;;;23.40;99.90;;;;;;5011068;28;20218;-82
2022/08/30 11:34:45;;;;;;;5.10;0.82;;;23.30;99.90;;;;;;5005562;28;20305;-80
2022/08/30 11:37:41;;;;;;;0.80;0.80;;;23.10;99.90;;;;;;5011267;28;20239;-81
2022/08/30 11:40:30;;;;;;;1.52;0.90;;;22.20;99.90;;;;;;5008870;28;20207;-80
2022/08/30 11:42:56;;;;;;;2.75;0.70;;;21.70;99.90;;;;;;5007307;28;20297;-82
2022/08/30 11:45:21;;;;;;;2.03;1.00;;;21.60;99.90;;;;;;5010438;28;20219;-81
2022/08/30 11:47:53;;;;;;;0.88;0.88;;;21.70;99.90;;;;;;5005358;28;20223;-80
2022/08/30 11:50:40;;;;;;;1.15;0.47;;;21.60;99.90;;;;;;4988273;28;20302;-80
2022/08/30 11:53:41;;;;;;;1.13;0.70;;;21.30;99.90;;;;;;5014018;28;20187;-81
2022/08/30 11:56:21;;;;;;;1.10;0.53;;;21.20;99.90;;;;;;5005739;28;20506;-81
2022/08/30 11:58:59;;;;;;;0.90;0.90;;;21.30;99.90;;;;;;5012265;28;20229;-80
2022/08/30 12:01:24;;;;;;;0.60;0.60;;;21.10;99.90;;;;;;5011025;28;20251;-81
2022/08/30 12:04:00;;;;;;;7.87;1.00;;;21.60;99.90;;;;;;5012712;28;20261;-80
2022/08/30 12:06:40;;;;;;;0.83;0.50;;;21.40;99.90;;;;;;5014073;28;20656;-80
2022/08/30 12:09:23;;;;;;;5.25;0.55;;;21.00;99.90;;;;;;5011353;28;20296;-80
2022/08/30 12:12:03;;;;;;;3.17;0.90;;;21.20;99.90;;;;;;5012738;28;20723;-81
2022/08/30 12:14:47;;;;;;;0.53;0.50;;;21.50;99.90;;;;;;5011743;28;20253;-79
2022/08/30 12:20:20;;;;;;;2.23;0.57;;;21.30;99.90;;;;;;5011239;28;20204;-80
2022/08/30 12:22:45;;;;;;;4.33;1.13;;;21.40;99.90;;;;;;5007202;28;20214;-80
2022/08/30 12:25:20;;;;;;;0.90;0.70;;;21.30;99.90;;;;;;5008501;28;20226;-80
2022/08/30 12:27:46;;;;;;;0.50;0.50;;;21.30;99.90;;;;;;5013713;28;20223;-80
2022/08/30 12:30:12;;;;;;;0.87;0.87;;;21.10;99.90;;;;;;5009547;28;20719;-80
2022/08/30 12:32:46;;;;;;;0.93;0.53;;;21.00;99.90;;;;;;5009829;28;20223;-80
2022/08/30 12:35:23;;;;;;;1.47;0.80;;;21.00;99.90;;;;;;5012260;28;20560;-79
2022/08/30 12:37:59;;;;;;;1.27;0.90;;;21.20;99.90;;;;;;4993435;28;20239;-81
2022/08/30 12:40:27;;;;;;;0.60;0.50;;;21.30;99.90;;;;;;4989103;28;20290;-80
2022/08/30 12:42:59;;;;;;;0.93;0.73;;;21.30;99.90;;;;;;4993759;28;20312;-80
2022/08/30 12:45:32;;;;;;;0.67;0.67;;;21.20;99.90;;;;;;4993937;28;20219;-81
2022/08/30 12:48:05;;;;;;;0.50;0.50;;;21.60;99.90;;;;;;4998141;28;20220;-80
2022/08/30 12:50:42;;;;;;;0.60;0.60;;;21.50;99.90;;;;;;5011181;28;20298;-79
2022/08/30 12:53:11;;;;;;;2.97;0.80;;;21.60;99.90;;;;;;5022535;28;20199;-82
2022/08/30 12:55:58;;;;;;;2.03;0.67;;;22.00;99.90;;;;;;5011951;28;20269;-81
2022/08/30 12:58:54;;;;;;;0.67;0.63;;;22.00;99.90;;;;;;5012579;28;20726;-82
2022/08/30 13:01:27;;;;;;;0.70;0.70;;;21.70;99.90;;;;;;4996946;28;20314;-82
2022/08/30 13:04:33;;;;;;;2.70;0.77;;;22.10;99.90;;;;;;5012142;28;20226;-80
2022/08/30 13:07:00;;;;;;;1.33;0.80;;;22.40;99.90;;;;;;4979020;28;20229;-82
2022/08/30 13:09:36;;;;;;;0.90;0.70;;;22.20;99.90;;;;;;5012885;28;20293;-82
2022/08/30 13:12:05;;;;;;;0.80;0.80;;;21.80;99.90;;;;;;5011615;28;20321;-83